地図

経路データ

SID SEASON NUMBER BASIN SUBBASIN NAME ISO_TIME NATURE LAT LON WMO_WIND WMO_PRES WMO_AGENCY TRACK_TYPE DIST2LAND LANDFALL IFLAG USA_AGENCY USA_ATCF_ID USA_LAT USA_LON USA_RECORD USA_STATUS USA_WIND USA_PRES USA_SSHS USA_R34_NE USA_R34_SE USA_R34_SW USA_R34_NW USA_R50_NE USA_R50_SE USA_R50_SW USA_R50_NW USA_R64_NE USA_R64_SE USA_R64_SW USA_R64_NW USA_POCI USA_ROCI USA_RMW USA_EYE TOKYO_LAT TOKYO_LON TOKYO_GRADE TOKYO_WIND TOKYO_PRES TOKYO_R50_DIR TOKYO_R50_LONG TOKYO_R50_SHORT TOKYO_R30_DIR TOKYO_R30_LONG TOKYO_R30_SHORT TOKYO_LAND CMA_LAT CMA_LON CMA_CAT CMA_WIND CMA_PRES HKO_LAT HKO_LON HKO_CAT HKO_WIND HKO_PRES NEWDELHI_LAT NEWDELHI_LON NEWDELHI_GRADE NEWDELHI_WIND NEWDELHI_PRES NEWDELHI_CI NEWDELHI_DP NEWDELHI_POCI REUNION_LAT REUNION_LON REUNION_TYPE REUNION_WIND REUNION_PRES REUNION_TNUM REUNION_CI REUNION_RMW REUNION_R34_NE REUNION_R34_SE REUNION_R34_SW REUNION_R34_NW REUNION_R50_NE REUNION_R50_SE REUNION_R50_SW REUNION_R50_NW REUNION_R64_NE REUNION_R64_SE REUNION_R64_SW REUNION_R64_NW BOM_LAT BOM_LON BOM_TYPE BOM_WIND BOM_PRES BOM_TNUM BOM_CI BOM_RMW BOM_R34_NE BOM_R34_SE BOM_R34_SW BOM_R34_NW BOM_R50_NE BOM_R50_SE BOM_R50_SW BOM_R50_NW BOM_R64_NE BOM_R64_SE BOM_R64_SW BOM_R64_NW BOM_ROCI BOM_POCI BOM_EYE BOM_POS_METHOD BOM_PRES_METHOD NADI_LAT NADI_LON NADI_CAT NADI_WIND NADI_PRES WELLINGTON_LAT WELLINGTON_LON WELLINGTON_WIND WELLINGTON_PRES DS824_LAT DS824_LON DS824_STAGE DS824_WIND DS824_PRES TD9636_LAT TD9636_LON TD9636_STAGE TD9636_WIND TD9636_PRES TD9635_LAT TD9635_LON TD9635_WIND TD9635_PRES TD9635_ROCI NEUMANN_LAT NEUMANN_LON NEUMANN_CLASS NEUMANN_WIND NEUMANN_PRES MLC_LAT MLC_LON MLC_CLASS MLC_WIND MLC_PRES USA_GUST BOM_GUST BOM_GUST_PER REUNION_GUST REUNION_GUST_PER USA_SEAHGT USA_SEARAD_NE USA_SEARAD_SE USA_SEARAD_SW USA_SEARAD_NW STORM_SPEED STORM_DIR
1928205N16138 1928 36 WP MM NOT_NAMED 1928-07-22 22:00:00 NR 15.8000 137.900 main 1397 1397 __________O___ -1 15.8000 137.900 7 15 12
1928205N16138 1928 36 WP MM NOT_NAMED 1928-07-23 00:00:00 NR 16.2824 137.998 main 1423 1423 __________P___ -1 16.2824 137.998 7 15 11
1928205N16138 1928 36 WP MM NOT_NAMED 1928-07-23 03:00:00 NR 17.0063 138.147 main 1458 1468 __________P___ -1 17.0063 138.147 7 15 11
1928205N16138 1928 36 WP MM NOT_NAMED 1928-07-23 06:00:00 NR 17.7311 138.297 main 1506 1510 __________P___ -1 17.7311 138.297 7 15 11
1928205N16138 1928 36 WP MM NOT_NAMED 1928-07-23 09:00:00 NR 18.4574 138.449 main 1552 1561 __________P___ -1 18.4574 138.449 7 15 11
1928205N16138 1928 36 WP MM NOT_NAMED 1928-07-23 10:00:00 NR 18.7000 138.500 main 1571 1538 __________O___ -1 18.7000 138.500 7 15 12
1928205N16138 1928 36 WP MM NOT_NAMED 1928-07-23 12:00:00 NR 19.1854 138.603 main 1538 1475 __________P___ -1 19.1854 138.603 7 15 11
1928205N16138 1928 36 WP MM NOT_NAMED 1928-07-23 15:00:00 NR 19.9076 138.757 main 1481 1418 __________P___ -1 19.9076 138.757 7 15 11
1928205N16138 1928 36 WP MM NOT_NAMED 1928-07-23 18:00:00 NR 20.6115 138.908 main 1418 1362 __________P___ -1 20.6115 138.908 7 14 11
1928205N16138 1928 36 WP MM NOT_NAMED 1928-07-23 21:00:00 NR 21.2846 139.053 main 1362 1344 __________P___ -1 21.2846 139.053 7 14 11
1928205N16138 1928 36 WP MM NOT_NAMED 1928-07-23 22:00:00 NR 21.5000 139.100 main 1344 1312 __________O___ -1 21.5000 139.100 7 13 12
1928205N16138 1928 36 WP MM NOT_NAMED 1928-07-24 00:00:00 NR 21.9092 139.200 main 1312 1263 __________P___ -1 21.9092 139.200 7 12 13
1928205N16138 1928 36 WP MM NOT_NAMED 1928-07-24 03:00:00 NR 22.4915 139.343 main 1263 1205 __________P___ -1 22.4915 139.343 7 12 12
1928205N16138 1928 36 WP MM NOT_NAMED 1928-07-24 06:00:00 NR 23.0525 139.470 main 1205 1154 __________P___ -1 23.0525 139.470 7 11 11
1928205N16138 1928 36 WP MM NOT_NAMED 1928-07-24 09:00:00 NR 23.6111 139.573 main 1154 1133 __________P___ -1 23.6111 139.573 7 11 9
1928205N16138 1928 36 WP MM NOT_NAMED 1928-07-24 10:00:00 NR 23.8000 139.600 main 1133 1091 __________O___ -1 23.8000 139.600 7 12 7
1928205N16138 1928 36 WP MM NOT_NAMED 1928-07-24 12:00:00 NR 24.1847 139.642 main 1091 1031 __________P___ -1 24.1847 139.642 7 12 4
1928205N16138 1928 36 WP MM NOT_NAMED 1928-07-24 15:00:00 NR 24.7769 139.680 main 1031 969 __________P___ -1 24.7769 139.680 7 12 3
1928205N16138 1928 36 WP MM NOT_NAMED 1928-07-24 18:00:00 NR 25.3823 139.697 main 969 907 __________P___ -1 25.3823 139.697 7 12 0
1928205N16138 1928 36 WP MM NOT_NAMED 1928-07-24 21:00:00 NR 25.9951 139.700 main 907 886 __________P___ -1 25.9951 139.700 7 12 0
1928205N16138 1928 36 WP MM NOT_NAMED 1928-07-24 22:00:00 NR 26.2000 139.700 main 886 __________O___ -1 26.2000 139.700 7 12 355

デジタル台風データ・検索

IBTrACS Databaseについて

本データベースは、米国NOAAが公開する1842年以降の世界の熱帯低気圧のベストトラックデータアーカイブInternational Best Track Archive for Climate Stewardship (IBTrACS)を、ウェブで閲覧しやすい形式に変換したものです。

最終更新日:2021-12-08